Anne Sibum — C4YC2 — position and weather

sailwx.info

Track history (hours):
 
Tides and Currents Weather Stations Pressure Air Temp Water Temp Dewpoint Dewpoint Depression Visibility Wind Speed Wind Dir Waves Ship Positions

Anne Sibum

Last reported at 2015-Apr-28 17:25 UTC. Time now 2015-Apr-28 18:13 UTC.
Position N 53°32' E 009°55'.

Length 151 m; draft 6.5 m.

Type: Ship (hazmat cat A). MMSI: 209322000.

Date/timePositionNaut miles runAvg speedWind from/ knotsBaromVisibWave heightAir tempDewpointWater temp
2015-Apr-28 17:25N 53°32' E 009°55'0 0.0
2015-Apr-28 16:31N 53°32' E 009°55'0 0.0
2015-Apr-28 15:26N 53°32' E 009°55'0 0.0
2015-Apr-28 14:24N 53°32' E 009°55'0 0.2
2015-Apr-28 13:33N 53°32' E 009°54'8 7.6
2015-Apr-28 12:33N 53°34' E 009°42'5 5.5
2015-Apr-28 11:33N 53°37' E 009°34'10 9.9
2015-Apr-28 10:33N 53°45' E 009°25'1313.0
2015-Apr-28 09:33N 53°53' E 009°07'1111.4
2015-Apr-28 08:33N 53°50' E 008°48'1211.5
2015-Apr-28 07:33N 53°58' E 008°33'1312.5
2015-Apr-28 06:33N 53°59' E 008°12'5 4.9
2015-Apr-28 05:33N 53°58' E 008°04'10 9.9
2015-Apr-28 04:33N 53°56' E 007°47'1716.5
2015-Apr-28 03:33N 53°52' E 007°20'3716.2
2015-Apr-28 01:15N 53°44' E 006°19'1115.9
2015-Apr-28 00:33N 53°41' E 006°01'1615.7
2015-Apr-27 23:34N 53°36' E 005°36'1515.3
2015-Apr-27 22:34N 53°30' E 005°12'1515.0
2015-Apr-27 21:33N 53°24' E 004°48'2014.4
2015-Apr-27 20:12N 53°09' E 004°29'4114.5
2015-Apr-27 17:20N 52°32' E 003°57'1113.9
2015-Apr-27 16:33N 52°22' E 003°52'1414.1
2015-Apr-27 15:33N 52°07' E 003°54'1111.5
2015-Apr-27 14:34N 51°58' E 004°05'2 1.7
2015-Apr-27 13:33N 51°57' E 004°03'0 0.0
2015-Apr-27 12:33N 51°57' E 004°03'0 0.0
2015-Apr-27 11:32N 51°57' E 004°03'0 0.0
2015-Apr-27 10:32N 51°57' E 004°03'0 0.0
2015-Apr-27 09:32N 51°57' E 004°03'1 0.5
2015-Apr-27 08:32N 51°58' E 004°03'0 0.0
2015-Apr-27 07:28N 51°58' E 004°03'0 0.0
2015-Apr-27 06:28N 51°58' E 004°03'0 0.0
2015-Apr-27 05:31N 51°58' E 004°03'0 0.0
2015-Apr-27 04:33N 51°58' E 004°03'0 0.0
2015-Apr-27 03:33N 51°58' E 004°03'0 0.0
2015-Apr-27 02:32N 51°58' E 004°03'0 0.0
2015-Apr-27 01:32N 51°58' E 004°03'0 0.0
2015-Apr-27 00:31N 51°58' E 004°03'0 0.0
2015-Apr-26 23:31N 51°58' E 004°03'0 0.0
2015-Apr-26 22:31N 51°58' E 004°03'1 1.3
2015-Apr-26 21:33N 51°58' E 004°05'10 9.8
2015-Apr-26 20:33N 51°54' E 004°19'4 3.7
2015-Apr-26 19:33N 51°53' E 004°25'0 0.0
2015-Apr-26 18:32N 51°53' E 004°25'0 0.0
2015-Apr-26 17:32N 51°53' E 004°25'0 0.0
2015-Apr-26 16:31N 51°53' E 004°25'0 0.0
2015-Apr-26 15:31N 51°53' E 004°25'0 0.0
2015-Apr-26 14:33N 51°53' E 004°25'0 0.0
2015-Apr-26 13:33N 51°53' E 004°25'0 0.0
2015-Apr-26 12:32N 51°53' E 004°25'0 0.0
2015-Apr-26 11:32N 51°53' E 004°25'0 0.0
2015-Apr-26 10:29N 51°53' E 004°25'0 0.0
2015-Apr-26 09:31N 51°53' E 004°25'0 0.0
2015-Apr-26 08:31N 51°53' E 004°25'0 0.0
2015-Apr-26 07:33N 51°53' E 004°25'0 0.0
2015-Apr-26 06:33N 51°53' E 004°25'0 0.0
2015-Apr-26 05:32N 51°53' E 004°25'0 0.0
2015-Apr-26 04:32N 51°53' E 004°25'0 0.0
2015-Apr-26 03:32N 51°53' E 004°25'0 0.0
2015-Apr-26 02:31N 51°53' E 004°25'0 0.0
2015-Apr-26 01:31N 51°53' E 004°25'0 0.0
2015-Apr-26 00:30N 51°53' E 004°25'0 0.0
2015-Apr-25 23:33N 51°53' E 004°25'0 0.0
2015-Apr-25 22:32N 51°53' E 004°25'0 0.0
2015-Apr-25 21:32N 51°53' E 004°25'3 2.6
2015-Apr-25 20:33N 51°54' E 004°21'1111.2
2015-Apr-25 19:33N 51°59' E 004°05'2 1.5
2015-Apr-25 18:26N 51°58' E 004°03'0 0.0
2015-Apr-25 17:26N 51°58' E 004°03'0 0.0
2015-Apr-25 16:34N 51°58' E 004°03'2 1.6
2015-Apr-25 15:33N 51°57' E 004°04'0 0.0
2015-Apr-25 14:33N 51°57' E 004°04'0 0.0
2015-Apr-25 13:34N 51°57' E 004°04'0 0.0
2015-Apr-25 12:34N 51°57' E 004°04'0 0.0
2015-Apr-25 11:33N 51°57' E 004°04'0 0.0
2015-Apr-25 10:34N 51°57' E 004°04'0 0.0
2015-Apr-25 09:33N 51°57' E 004°04'0 0.0
2015-Apr-25 08:34N 51°57' E 004°04'0 0.0
2015-Apr-25 07:33N 51°57' E 004°04'0 0.0
2015-Apr-25 06:34N 51°57' E 004°04'0 0.0
2015-Apr-25 05:34N 51°57' E 004°04'0 0.0
2015-Apr-25 04:34N 51°57' E 004°04'0 0.0
2015-Apr-25 03:33N 51°57' E 004°04'0 0.0
2015-Apr-25 02:34N 51°57' E 004°04'0 0.0
2015-Apr-25 01:34N 51°57' E 004°04'4 3.7
2015-Apr-25 00:34N 51°60' E 004°00'9 9.0
2015-Apr-24 23:32N 52°03' E 003°46'7 5.4
2015-Apr-24 22:12N 52°09' E 003°40'0 0.0
2015-Apr-24 19:17N 52°09' E 003°40'0 0.0
2015-Apr-24 18:31N 52°09' E 003°40'0 0.1
2015-Apr-24 17:28N 52°09' E 003°40'0 0.0
2015-Apr-24 16:33N 52°09' E 003°40'0 0.1
2015-Apr-24 15:24N 52°09' E 003°40'0 0.0
2015-Apr-24 13:32N 52°09' E 003°40'6 5.6
2015-Apr-24 12:32N 52°13' E 003°46'1211.8
2015-Apr-24 11:33N 52°24' E 003°49'1712.1
2015-Apr-24 10:10N 52°41' E 003°54'812.0
2015-Apr-24 09:33N 52°48' E 003°57'1211.8
2015-Apr-24 08:31N 52°60' E 004°03'1212.1
2015-Apr-24 07:29N 53°08' E 004°19'1311.4
2015-Apr-24 06:20N 53°19' E 004°30'1012.7
2015-Apr-24 05:33N 53°28' E 004°38'1413.7
2015-Apr-24 04:33N 53°34' E 004°59'1413.9
2015-Apr-24 03:33N 53°38' E 005°21'1313.3
2015-Apr-24 02:33N 53°42' E 005°42'1312.7
2015-Apr-24 01:33N 53°46' E 006°02'1312.5
2015-Apr-24 00:33N 53°50' E 006°23'1212.1
2015-Apr-23 23:33N 53°53' E 006°43'1211.9
2015-Apr-23 22:33N 53°56' E 007°02'1212.1
2015-Apr-23 21:33N 53°59' E 007°22'1211.8
2015-Apr-23 20:33N 54°02' E 007°42'1312.7
2015-Apr-23 19:33N 54°01' E 008°03'1515.2
2015-Apr-23 18:34N 53°59' E 008°29'1515.4
2015-Apr-23 17:33N 53°50' E 008°51'1111.0
2015-Apr-23 16:33N 53°54' E 009°09'1 0.8
2015-Apr-23 15:33N 53°54' E 009°10'8 8.0
2015-Apr-23 14:33N 54°01' E 009°18'8 8.4
2015-Apr-23 13:33N 54°09' E 009°21'9 8.6
2015-Apr-23 12:32N 54°13' E 009°34'9 7.4
2015-Apr-23 11:21N 54°20' E 009°43'6 7.7
2015-Apr-23 10:33N 54°21' E 009°54'5 4.8
2015-Apr-23 09:33N 54°22' E 010°02'5 3.2
2015-Apr-23 08:06N 54°22' E 010°10'2 2.0
2015-Apr-23 07:06N 54°24' E 010°12'611.6
2015-Apr-23 06:33N 54°29' E 010°17'1311.8
2015-Apr-23 05:30N 54°34' E 010°36'1212.8
2015-Apr-23 04:33N 54°36' E 010°57'1212.6
2015-Apr-23 03:33N 54°34' E 011°18'1312.7
2015-Apr-23 02:33N 54°29' E 011°38'1312.5
2015-Apr-23 01:33N 54°26' E 011°59'1010.3
2015-Apr-23 00:33N 54°33' E 012°13'1312.0
2015-Apr-22 23:30N 54°42' E 012°28'1212.7
2015-Apr-22 22:33N 54°48' E 012°45'1312.6
2015-Apr-22 21:33N 54°53' E 013°06'1312.7
2015-Apr-22 20:33N 54°57' E 013°27'1312.7
2015-Apr-22 19:33N 55°01' E 013°48'1412.5
2015-Apr-22 18:25N 55°08' E 014°09'1213.0
2015-Apr-22 17:31N 55°17' E 014°22'1412.8
2015-Apr-22 16:25N 55°28' E 014°39'1113.0
2015-Apr-22 15:33N 55°33' E 014°56'1313.2
2015-Apr-22 14:33N 55°40' E 015°16'1313.3
2015-Apr-22 13:33N 55°47' E 015°37'1313.2
2015-Apr-22 12:33N 55°53' E 015°57'31912.7
2015-Apr-21 11:31N 59°36' E 023°06'1313.4
2015-Apr-21 10:33N 59°39' E 023°30'1413.5
2015-Apr-21 09:31N 59°43' E 023°57'4412.9
2015-Apr-21 06:06N 60°07' E 025°12'610.9
2015-Apr-21 05:33N 60°13' E 025°12'0 0.0
2015-Apr-20 19:22N 60°13' E 025°11'2 1.8
2015-Apr-20 18:27N 60°12' E 025°13'29 3.2
2015-Apr-20 09:18N 60°04' E 026°10'7 8.7
2015-Apr-20 08:33N 60°09' E 026°19'10 9.8
2015-Apr-20 07:33N 60°17' E 026°31'1414.5
2015-Apr-20 06:33N 60°25' E 026°55'1 0.5
2015-Apr-20 05:31N 60°25' E 026°54'0 0.0
2015-Apr-20 04:30N 60°25' E 026°54'0 0.0
2015-Apr-20 03:33N 60°25' E 026°54'0 0.0
2015-Apr-20 02:33N 60°25' E 026°54'0 0.0
2015-Apr-20 01:34N 60°25' E 026°54'10 9.6
2015-Apr-20 00:33N 60°20' E 026°38'1212.0
2015-Apr-19 23:33N 60°11' E 026°22'11 5.3
2015-Apr-19 21:32N 60°00' E 026°24'9 8.9
2015-Apr-19 20:33N 60°01' E 026°41'92 9.2
2015-Apr-19 10:33N 59°59' E 029°46'1010.3
2015-Apr-19 09:33N 59°54' E 030°05'4 4.4
2015-Apr-19 08:33N 59°52' E 030°13'0 0.0
2015-Apr-19 07:33N 59°52' E 030°12'0 0.0
2015-Apr-19 06:33N 59°52' E 030°12'0 0.0
2015-Apr-19 05:33N 59°52' E 030°12'0 0.0
2015-Apr-19 04:29N 59°52' E 030°12'0 0.0
2015-Apr-19 03:29N 59°52' E 030°12'0 0.0
2015-Apr-19 02:31N 59°52' E 030°12'0 0.0
2015-Apr-19 01:22N 59°52' E 030°13'0 0.1
2015-Apr-19 00:33N 59°52' E 030°12'0 0.0
2015-Apr-18 23:33N 59°52' E 030°13'0 0.0
2015-Apr-18 22:32N 59°52' E 030°12'0 0.0
2015-Apr-18 21:32N 59°52' E 030°12'0 0.0
2015-Apr-18 20:32N 59°52' E 030°13'0 0.0
2015-Apr-18 19:28N 59°52' E 030°12'0 0.0
2015-Apr-18 18:31N 59°52' E 030°12'0 0.0
2015-Apr-18 17:33N 59°52' E 030°12'  
Track history (hours):
 
Tides and Currents Weather Stations Pressure Air Temp Water Temp Dewpoint Dewpoint Depression Visibility Wind Speed Wind Dir Waves Ship Positions

Anne Sibum

Last reported at 2015-Apr-28 17:25 UTC. Time now 2015-Apr-28 18:13 UTC.
Position N 53°32' E 009°55'.

Length 151 m; draft 6.5 m.

Type: Ship (hazmat cat A). MMSI: 209322000.

Date/timePositionNaut miles runAvg speedWind from/ knotsBaromVisibWave heightAir tempDewpointWater temp
2015-Apr-28 17:25N 53°32' E 009°55'0 0.0
2015-Apr-28 16:31N 53°32' E 009°55'0 0.0
2015-Apr-28 15:26N 53°32' E 009°55'0 0.0
2015-Apr-28 14:24N 53°32' E 009°55'0 0.2
2015-Apr-28 13:33N 53°32' E 009°54'8 7.6
2015-Apr-28 12:33N 53°34' E 009°42'5 5.5
2015-Apr-28 11:33N 53°37' E 009°34'10 9.9
2015-Apr-28 10:33N 53°45' E 009°25'1313.0
2015-Apr-28 09:33N 53°53' E 009°07'1111.4
2015-Apr-28 08:33N 53°50' E 008°48'1211.5
2015-Apr-28 07:33N 53°58' E 008°33'1312.5
2015-Apr-28 06:33N 53°59' E 008°12'5 4.9
2015-Apr-28 05:33N 53°58' E 008°04'10 9.9
2015-Apr-28 04:33N 53°56' E 007°47'1716.5
2015-Apr-28 03:33N 53°52' E 007°20'3716.2
2015-Apr-28 01:15N 53°44' E 006°19'1115.9
2015-Apr-28 00:33N 53°41' E 006°01'1615.7
2015-Apr-27 23:34N 53°36' E 005°36'1515.3
2015-Apr-27 22:34N 53°30' E 005°12'1515.0
2015-Apr-27 21:33N 53°24' E 004°48'2014.4
2015-Apr-27 20:12N 53°09' E 004°29'4114.5
2015-Apr-27 17:20N 52°32' E 003°57'1113.9
2015-Apr-27 16:33N 52°22' E 003°52'1414.1
2015-Apr-27 15:33N 52°07' E 003°54'1111.5
2015-Apr-27 14:34N 51°58' E 004°05'2 1.7
2015-Apr-27 13:33N 51°57' E 004°03'0 0.0
2015-Apr-27 12:33N 51°57' E 004°03'0 0.0
2015-Apr-27 11:32N 51°57' E 004°03'0 0.0
2015-Apr-27 10:32N 51°57' E 004°03'0 0.0
2015-Apr-27 09:32N 51°57' E 004°03'1 0.5
2015-Apr-27 08:32N 51°58' E 004°03'0 0.0
2015-Apr-27 07:28N 51°58' E 004°03'0 0.0
2015-Apr-27 06:28N 51°58' E 004°03'0 0.0
2015-Apr-27 05:31N 51°58' E 004°03'0 0.0
2015-Apr-27 04:33N 51°58' E 004°03'0 0.0
2015-Apr-27 03:33N 51°58' E 004°03'0 0.0
2015-Apr-27 02:32N 51°58' E 004°03'0 0.0
2015-Apr-27 01:32N 51°58' E 004°03'0 0.0
2015-Apr-27 00:31N 51°58' E 004°03'0 0.0
2015-Apr-26 23:31N 51°58' E 004°03'0 0.0
2015-Apr-26 22:31N 51°58' E 004°03'1 1.3
2015-Apr-26 21:33N 51°58' E 004°05'10 9.8
2015-Apr-26 20:33N 51°54' E 004°19'4 3.7
2015-Apr-26 19:33N 51°53' E 004°25'0 0.0
2015-Apr-26 18:32N 51°53' E 004°25'0 0.0
2015-Apr-26 17:32N 51°53' E 004°25'0 0.0
2015-Apr-26 16:31N 51°53' E 004°25'0 0.0
2015-Apr-26 15:31N 51°53' E 004°25'0 0.0
2015-Apr-26 14:33N 51°53' E 004°25'0 0.0
2015-Apr-26 13:33N 51°53' E 004°25'0 0.0
2015-Apr-26 12:32N 51°53' E 004°25'0 0.0
2015-Apr-26 11:32N 51°53' E 004°25'0 0.0
2015-Apr-26 10:29N 51°53' E 004°25'0 0.0
2015-Apr-26 09:31N 51°53' E 004°25'0 0.0
2015-Apr-26 08:31N 51°53' E 004°25'0 0.0
2015-Apr-26 07:33N 51°53' E 004°25'0 0.0
2015-Apr-26 06:33N 51°53' E 004°25'0 0.0
2015-Apr-26 05:32N 51°53' E 004°25'0 0.0
2015-Apr-26 04:32N 51°53' E 004°25'0 0.0
2015-Apr-26 03:32N 51°53' E 004°25'0 0.0
2015-Apr-26 02:31N 51°53' E 004°25'0 0.0
2015-Apr-26 01:31N 51°53' E 004°25'0 0.0
2015-Apr-26 00:30N 51°53' E 004°25'0 0.0
2015-Apr-25 23:33N 51°53' E 004°25'0 0.0
2015-Apr-25 22:32N 51°53' E 004°25'0 0.0
2015-Apr-25 21:32N 51°53' E 004°25'3 2.6
2015-Apr-25 20:33N 51°54' E 004°21'1111.2
2015-Apr-25 19:33N 51°59' E 004°05'2 1.5
2015-Apr-25 18:26N 51°58' E 004°03'0 0.0
2015-Apr-25 17:26N 51°58' E 004°03'0 0.0
2015-Apr-25 16:34N 51°58' E 004°03'2 1.6
2015-Apr-25 15:33N 51°57' E 004°04'0 0.0
2015-Apr-25 14:33N 51°57' E 004°04'0 0.0
2015-Apr-25 13:34N 51°57' E 004°04'0 0.0
2015-Apr-25 12:34N 51°57' E 004°04'0 0.0
2015-Apr-25 11:33N 51°57' E 004°04'0 0.0
2015-Apr-25 10:34N 51°57' E 004°04'0 0.0
2015-Apr-25 09:33N 51°57' E 004°04'0 0.0
2015-Apr-25 08:34N 51°57' E 004°04'0 0.0
2015-Apr-25 07:33N 51°57' E 004°04'0 0.0
2015-Apr-25 06:34N 51°57' E 004°04'0 0.0
2015-Apr-25 05:34N 51°57' E 004°04'0 0.0
2015-Apr-25 04:34N 51°57' E 004°04'0 0.0
2015-Apr-25 03:33N 51°57' E 004°04'0 0.0
2015-Apr-25 02:34N 51°57' E 004°04'0 0.0
2015-Apr-25 01:34N 51°57' E 004°04'4 3.7
2015-Apr-25 00:34N 51°60' E 004°00'9 9.0
2015-Apr-24 23:32N 52°03' E 003°46'7 5.4
2015-Apr-24 22:12N 52°09' E 003°40'0 0.0
2015-Apr-24 19:17N 52°09' E 003°40'0 0.0
2015-Apr-24 18:31N 52°09' E 003°40'0 0.1
2015-Apr-24 17:28N 52°09' E 003°40'0 0.0
2015-Apr-24 16:33N 52°09' E 003°40'0 0.1
2015-Apr-24 15:24N 52°09' E 003°40'0 0.0
2015-Apr-24 13:32N 52°09' E 003°40'6 5.6
2015-Apr-24 12:32N 52°13' E 003°46'1211.8
2015-Apr-24 11:33N 52°24' E 003°49'1712.1
2015-Apr-24 10:10N 52°41' E 003°54'812.0
2015-Apr-24 09:33N 52°48' E 003°57'1211.8
2015-Apr-24 08:31N 52°60' E 004°03'1212.1
2015-Apr-24 07:29N 53°08' E 004°19'1311.4
2015-Apr-24 06:20N 53°19' E 004°30'1012.7
2015-Apr-24 05:33N 53°28' E 004°38'1413.7
2015-Apr-24 04:33N 53°34' E 004°59'1413.9
2015-Apr-24 03:33N 53°38' E 005°21'1313.3
2015-Apr-24 02:33N 53°42' E 005°42'1312.7
2015-Apr-24 01:33N 53°46' E 006°02'1312.5
2015-Apr-24 00:33N 53°50' E 006°23'1212.1
2015-Apr-23 23:33N 53°53' E 006°43'1211.9
2015-Apr-23 22:33N 53°56' E 007°02'1212.1
2015-Apr-23 21:33N 53°59' E 007°22'1211.8
2015-Apr-23 20:33N 54°02' E 007°42'1312.7
2015-Apr-23 19:33N 54°01' E 008°03'1515.2
2015-Apr-23 18:34N 53°59' E 008°29'1515.4
2015-Apr-23 17:33N 53°50' E 008°51'1111.0
2015-Apr-23 16:33N 53°54' E 009°09'1 0.8
2015-Apr-23 15:33N 53°54' E 009°10'8 8.0
2015-Apr-23 14:33N 54°01' E 009°18'8 8.4
2015-Apr-23 13:33N 54°09' E 009°21'9 8.6
2015-Apr-23 12:32N 54°13' E 009°34'9 7.4
2015-Apr-23 11:21N 54°20' E 009°43'6 7.7
2015-Apr-23 10:33N 54°21' E 009°54'5 4.8
2015-Apr-23 09:33N 54°22' E 010°02'5 3.2
2015-Apr-23 08:06N 54°22' E 010°10'2 2.0
2015-Apr-23 07:06N 54°24' E 010°12'611.6
2015-Apr-23 06:33N 54°29' E 010°17'1311.8
2015-Apr-23 05:30N 54°34' E 010°36'1212.8
2015-Apr-23 04:33N 54°36' E 010°57'1212.6
2015-Apr-23 03:33N 54°34' E 011°18'1312.7
2015-Apr-23 02:33N 54°29' E 011°38'1312.5
2015-Apr-23 01:33N 54°26' E 011°59'1010.3
2015-Apr-23 00:33N 54°33' E 012°13'1312.0
2015-Apr-22 23:30N 54°42' E 012°28'1212.7
2015-Apr-22 22:33N 54°48' E 012°45'1312.6
2015-Apr-22 21:33N 54°53' E 013°06'1312.7
2015-Apr-22 20:33N 54°57' E 013°27'1312.7
2015-Apr-22 19:33N 55°01' E 013°48'1412.5
2015-Apr-22 18:25N 55°08' E 014°09'1213.0
2015-Apr-22 17:31N 55°17' E 014°22'1412.8
2015-Apr-22 16:25N 55°28' E 014°39'1113.0
2015-Apr-22 15:33N 55°33' E 014°56'1313.2
2015-Apr-22 14:33N 55°40' E 015°16'1313.3
2015-Apr-22 13:33N 55°47' E 015°37'1313.2
2015-Apr-22 12:33N 55°53' E 015°57'31912.7
2015-Apr-21 11:31N 59°36' E 023°06'1313.4
2015-Apr-21 10:33N 59°39' E 023°30'1413.5
2015-Apr-21 09:31N 59°43' E 023°57'4412.9
2015-Apr-21 06:06N 60°07' E 025°12'610.9
2015-Apr-21 05:33N 60°13' E 025°12'0 0.0
2015-Apr-20 19:22N 60°13' E 025°11'2 1.8
2015-Apr-20 18:27N 60°12' E 025°13'29 3.2
2015-Apr-20 09:18N 60°04' E 026°10'7 8.7
2015-Apr-20 08:33N 60°09' E 026°19'10 9.8
2015-Apr-20 07:33N 60°17' E 026°31'1414.5
2015-Apr-20 06:33N 60°25' E 026°55'1 0.5
2015-Apr-20 05:31N 60°25' E 026°54'0 0.0
2015-Apr-20 04:30N 60°25' E 026°54'0 0.0
2015-Apr-20 03:33N 60°25' E 026°54'0 0.0
2015-Apr-20 02:33N 60°25' E 026°54'0 0.0
2015-Apr-20 01:34N 60°25' E 026°54'10 9.6
2015-Apr-20 00:33N 60°20' E 026°38'1212.0
2015-Apr-19 23:33N 60°11' E 026°22'11 5.3
2015-Apr-19 21:32N 60°00' E 026°24'9 8.9
2015-Apr-19 20:33N 60°01' E 026°41'92 9.2
2015-Apr-19 10:33N 59°59' E 029°46'1010.3
2015-Apr-19 09:33N 59°54' E 030°05'4 4.4
2015-Apr-19 08:33N 59°52' E 030°13'0 0.0
2015-Apr-19 07:33N 59°52' E 030°12'0 0.0
2015-Apr-19 06:33N 59°52' E 030°12'0 0.0
2015-Apr-19 05:33N 59°52' E 030°12'0 0.0
2015-Apr-19 04:29N 59°52' E 030°12'0 0.0
2015-Apr-19 03:29N 59°52' E 030°12'0 0.0
2015-Apr-19 02:31N 59°52' E 030°12'0 0.0
2015-Apr-19 01:22N 59°52' E 030°13'0 0.1
2015-Apr-19 00:33N 59°52' E 030°12'0 0.0
2015-Apr-18 23:33N 59°52' E 030°13'0 0.0
2015-Apr-18 22:32N 59°52' E 030°12'0 0.0
2015-Apr-18 21:32N 59°52' E 030°12'0 0.0
2015-Apr-18 20:32N 59°52' E 030°13'0 0.0
2015-Apr-18 19:28N 59°52' E 030°12'0 0.0
2015-Apr-18 18:31N 59°52' E 030°12'0 0.0
2015-Apr-18 17:33N 59°52' E 030°12'  

Dump ship's entire track history